sensor_id;sensor_type;location;lat;lon;timestamp;P1;durP1;ratioP1;P2;durP2;ratioP2
21060;SDS011;10689;50.836;3.266;2022-10-31T00:01:13;3.45;;;2.85;;
21060;SDS011;10689;50.836;3.266;2022-10-31T00:03:40;5.13;;;2.92;;
21060;SDS011;10689;50.836;3.266;2022-10-31T00:06:06;4.55;;;3.83;;
21060;SDS011;10689;50.836;3.266;2022-10-31T00:08:32;4.40;;;3.50;;
21060;SDS011;10689;50.836;3.266;2022-10-31T00:10:58;4.28;;;3.40;;
21060;SDS011;10689;50.836;3.266;2022-10-31T00:13:23;5.95;;;3.85;;
21060;SDS011;10689;50.836;3.266;2022-10-31T00:15:49;4.20;;;3.40;;
21060;SDS011;10689;50.836;3.266;2022-10-31T00:18:15;6.45;;;4.03;;
21060;SDS011;10689;50.836;3.266;2022-10-31T00:20:40;6.30;;;3.58;;
21060;SDS011;10689;50.836;3.266;2022-10-31T00:23:06;4.45;;;3.30;;
21060;SDS011;10689;50.836;3.266;2022-10-31T00:25:33;4.07;;;3.25;;
21060;SDS011;10689;50.836;3.266;2022-10-31T00:28:01;4.63;;;3.33;;
21060;SDS011;10689;50.836;3.266;2022-10-31T00:30:27;4.97;;;3.63;;
21060;SDS011;10689;50.836;3.266;2022-10-31T00:32:53;4.03;;;3.27;;
21060;SDS011;10689;50.836;3.266;2022-10-31T00:35:18;6.80;;;3.50;;
21060;SDS011;10689;50.836;3.266;2022-10-31T00:37:44;4.07;;;3.67;;
21060;SDS011;10689;50.836;3.266;2022-10-31T00:40:10;5.90;;;3.73;;
21060;SDS011;10689;50.836;3.266;2022-10-31T00:42:36;6.20;;;4.17;;
21060;SDS011;10689;50.836;3.266;2022-10-31T00:45:02;4.68;;;3.78;;
21060;SDS011;10689;50.836;3.266;2022-10-31T00:47:27;4.70;;;3.60;;
21060;SDS011;10689;50.836;3.266;2022-10-31T00:49:53;6.77;;;4.10;;
21060;SDS011;10689;50.836;3.266;2022-10-31T00:52:19;4.67;;;3.87;;
21060;SDS011;10689;50.836;3.266;2022-10-31T00:54:44;5.07;;;4.00;;
21060;SDS011;10689;50.836;3.266;2022-10-31T00:57:10;5.87;;;4.10;;
21060;SDS011;10689;50.836;3.266;2022-10-31T00:59:35;4.97;;;4.03;;
21060;SDS011;10689;50.836;3.266;2022-10-31T01:02:01;8.77;;;3.92;;
21060;SDS011;10689;50.836;3.266;2022-10-31T01:04:27;6.63;;;4.83;;
21060;SDS011;10689;50.836;3.266;2022-10-31T01:06:52;4.30;;;3.73;;
21060;SDS011;10689;50.836;3.266;2022-10-31T01:09:18;6.00;;;4.10;;
21060;SDS011;10689;50.836;3.266;2022-10-31T01:11:44;6.10;;;4.60;;
21060;SDS011;10689;50.836;3.266;2022-10-31T01:14:10;5.93;;;4.00;;
21060;SDS011;10689;50.836;3.266;2022-10-31T01:16:35;5.13;;;3.90;;
21060;SDS011;10689;50.836;3.266;2022-10-31T01:19:01;6.83;;;3.50;;
21060;SDS011;10689;50.836;3.266;2022-10-31T01:21:27;6.03;;;4.43;;
21060;SDS011;10689;50.836;3.266;2022-10-31T01:23:54;10.30;;;7.93;;
21060;SDS011;10689;50.836;3.266;2022-10-31T01:26:30;11.33;;;7.37;;
21060;SDS011;10689;50.836;3.266;2022-10-31T01:28:59;8.07;;;6.20;;
21060;SDS011;10689;50.836;3.266;2022-10-31T01:31:28;6.80;;;5.97;;
21060;SDS011;10689;50.836;3.266;2022-10-31T01:33:55;9.47;;;6.40;;
21060;SDS011;10689;50.836;3.266;2022-10-31T01:38:53;7.77;;;6.63;;
21060;SDS011;10689;50.836;3.266;2022-10-31T01:41:22;7.50;;;6.53;;
21060;SDS011;10689;50.836;3.266;2022-10-31T01:46:33;8.93;;;5.77;;
21060;SDS011;10689;50.836;3.266;2022-10-31T01:49:09;5.37;;;4.87;;
21060;SDS011;10689;50.836;3.266;2022-10-31T01:51:47;8.27;;;5.13;;
21060;SDS011;10689;50.836;3.266;2022-10-31T01:54:19;8.90;;;5.70;;
21060;SDS011;10689;50.836;3.266;2022-10-31T01:56:50;6.27;;;5.00;;
21060;SDS011;10689;50.836;3.266;2022-10-31T01:59:20;6.00;;;4.97;;
21060;SDS011;10689;50.836;3.266;2022-10-31T02:01:49;6.87;;;5.00;;
21060;SDS011;10689;50.836;3.266;2022-10-31T02:04:17;6.17;;;4.50;;
21060;SDS011;10689;50.836;3.266;2022-10-31T02:07:18;6.53;;;4.87;;
21060;SDS011;10689;50.836;3.266;2022-10-31T02:09:38;4.77;;;4.27;;
21060;SDS011;10689;50.836;3.266;2022-10-31T02:12:05;5.20;;;4.37;;
21060;SDS011;10689;50.836;3.266;2022-10-31T02:14:34;6.83;;;4.30;;
21060;SDS011;10689;50.836;3.266;2022-10-31T02:17:01;6.60;;;4.80;;
21060;SDS011;10689;50.836;3.266;2022-10-31T02:19:30;5.60;;;4.20;;
21060;SDS011;10689;50.836;3.266;2022-10-31T02:24:58;5.17;;;3.90;;
21060;SDS011;10689;50.836;3.266;2022-10-31T02:27:47;5.00;;;3.93;;
21060;SDS011;10689;50.836;3.266;2022-10-31T02:38:28;5.50;;;4.60;;
21060;SDS011;10689;50.836;3.266;2022-10-31T02:41:18;5.40;;;4.20;;
21060;SDS011;10689;50.836;3.266;2022-10-31T02:51:59;5.53;;;4.50;;
21060;SDS011;10689;50.836;3.266;2022-10-31T02:54:26;9.33;;;4.60;;
21060;SDS011;10689;50.836;3.266;2022-10-31T02:56:54;7.67;;;4.10;;
21060;SDS011;10689;50.836;3.266;2022-10-31T02:59:31;4.63;;;4.00;;
21060;SDS011;10689;50.836;3.266;2022-10-31T03:05:11;5.60;;;4.50;;
21060;SDS011;10689;50.836;3.266;2022-10-31T03:07:50;6.03;;;4.37;;
21060;SDS011;10689;50.836;3.266;2022-10-31T03:13:14;7.40;;;4.87;;
21060;SDS011;10689;50.836;3.266;2022-10-31T03:15:50;5.57;;;3.90;;
21060;SDS011;10689;50.836;3.266;2022-10-31T03:18:27;5.77;;;4.50;;
21060;SDS011;10689;50.836;3.266;2022-10-31T03:23:34;8.40;;;3.87;;
21060;SDS011;10689;50.836;3.266;2022-10-31T03:26:03;6.77;;;4.73;;
21060;SDS011;10689;50.836;3.266;2022-10-31T03:28:52;5.17;;;4.10;;
21060;SDS011;10689;50.836;3.266;2022-10-31T03:31:27;4.93;;;4.30;;
21060;SDS011;10689;50.836;3.266;2022-10-31T03:33:58;5.17;;;4.07;;
21060;SDS011;10689;50.836;3.266;2022-10-31T03:36:25;6.90;;;4.77;;
21060;SDS011;10689;50.836;3.266;2022-10-31T03:38:53;7.00;;;5.10;;
21060;SDS011;10689;50.836;3.266;2022-10-31T03:41:23;7.10;;;4.83;;
21060;SDS011;10689;50.836;3.266;2022-10-31T03:44:00;7.53;;;4.50;;
21060;SDS011;10689;50.836;3.266;2022-10-31T03:46:30;8.87;;;5.20;;
21060;SDS011;10689;50.836;3.266;2022-10-31T03:48:56;6.00;;;4.47;;
21060;SDS011;10689;50.836;3.266;2022-10-31T03:54:02;6.80;;;4.50;;
21060;SDS011;10689;50.836;3.266;2022-10-31T03:56:40;6.87;;;4.00;;
21060;SDS011;10689;50.836;3.266;2022-10-31T04:02:01;6.67;;;4.40;;
21060;SDS011;10689;50.836;3.266;2022-10-31T04:04:33;6.80;;;4.50;;
21060;SDS011;10689;50.836;3.266;2022-10-31T04:07:00;8.07;;;5.43;;
21060;SDS011;10689;50.836;3.266;2022-10-31T04:09:27;6.37;;;4.70;;
21060;SDS011;10689;50.836;3.266;2022-10-31T04:11:56;7.53;;;5.53;;
21060;SDS011;10689;50.836;3.266;2022-10-31T04:14:24;7.87;;;5.37;;
21060;SDS011;10689;50.836;3.266;2022-10-31T04:16:52;6.73;;;4.93;;
21060;SDS011;10689;50.836;3.266;2022-10-31T04:19:19;6.67;;;5.00;;
21060;SDS011;10689;50.836;3.266;2022-10-31T04:21:44;8.00;;;4.80;;
21060;SDS011;10689;50.836;3.266;2022-10-31T04:24:10;6.13;;;4.80;;
21060;SDS011;10689;50.836;3.266;2022-10-31T04:26:36;8.20;;;5.70;;
21060;SDS011;10689;50.836;3.266;2022-10-31T04:29:02;9.60;;;5.70;;
21060;SDS011;10689;50.836;3.266;2022-10-31T04:31:28;7.77;;;4.97;;
21060;SDS011;10689;50.836;3.266;2022-10-31T04:33:54;8.93;;;4.83;;
21060;SDS011;10689;50.836;3.266;2022-10-31T04:36:19;7.83;;;5.33;;
21060;SDS011;10689;50.836;3.266;2022-10-31T04:38:45;5.70;;;4.90;;
21060;SDS011;10689;50.836;3.266;2022-10-31T04:41:11;6.20;;;5.17;;
21060;SDS011;10689;50.836;3.266;2022-10-31T04:43:36;10.37;;;5.47;;
21060;SDS011;10689;50.836;3.266;2022-10-31T04:46:02;6.70;;;5.10;;
21060;SDS011;10689;50.836;3.266;2022-10-31T04:48:28;5.07;;;4.00;;
21060;SDS011;10689;50.836;3.266;2022-10-31T04:50:58;8.73;;;5.37;;
21060;SDS011;10689;50.836;3.266;2022-10-31T04:53:26;9.50;;;5.43;;
21060;SDS011;10689;50.836;3.266;2022-10-31T04:55:52;6.53;;;5.27;;
21060;SDS011;10689;50.836;3.266;2022-10-31T04:58:18;7.67;;;5.20;;
21060;SDS011;10689;50.836;3.266;2022-10-31T05:00:43;11.10;;;5.47;;
21060;SDS011;10689;50.836;3.266;2022-10-31T05:03:09;7.97;;;5.30;;
21060;SDS011;10689;50.836;3.266;2022-10-31T05:05:35;6.47;;;4.33;;
21060;SDS011;10689;50.836;3.266;2022-10-31T05:08:01;12.87;;;5.00;;
21060;SDS011;10689;50.836;3.266;2022-10-31T05:10:28;7.47;;;4.87;;
21060;SDS011;10689;50.836;3.266;2022-10-31T05:12:56;9.93;;;5.50;;
21060;SDS011;10689;50.836;3.266;2022-10-31T05:15:24;8.63;;;5.83;;
21060;SDS011;10689;50.836;3.266;2022-10-31T05:17:51;11.10;;;5.60;;
21060;SDS011;10689;50.836;3.266;2022-10-31T05:20:18;7.17;;;5.13;;
21060;SDS011;10689;50.836;3.266;2022-10-31T05:22:46;7.57;;;5.13;;
21060;SDS011;10689;50.836;3.266;2022-10-31T05:25:13;9.70;;;5.87;;
21060;SDS011;10689;50.836;3.266;2022-10-31T05:27:43;7.67;;;5.53;;
21060;SDS011;10689;50.836;3.266;2022-10-31T05:30:10;7.47;;;5.00;;
21060;SDS011;10689;50.836;3.266;2022-10-31T05:32:38;8.87;;;5.43;;
21060;SDS011;10689;50.836;3.266;2022-10-31T05:35:06;8.90;;;5.53;;
21060;SDS011;10689;50.836;3.266;2022-10-31T05:37:35;10.37;;;5.73;;
21060;SDS011;10689;50.836;3.266;2022-10-31T05:40:02;7.33;;;5.03;;
21060;SDS011;10689;50.836;3.266;2022-10-31T05:42:29;9.03;;;5.10;;
21060;SDS011;10689;50.836;3.266;2022-10-31T05:44:55;9.33;;;6.50;;
21060;SDS011;10689;50.836;3.266;2022-10-31T05:47:20;11.27;;;6.97;;
21060;SDS011;10689;50.836;3.266;2022-10-31T05:49:46;13.33;;;7.80;;
21060;SDS011;10689;50.836;3.266;2022-10-31T05:52:12;10.50;;;6.77;;
21060;SDS011;10689;50.836;3.266;2022-10-31T05:54:37;9.57;;;6.73;;
21060;SDS011;10689;50.836;3.266;2022-10-31T05:57:03;9.40;;;6.17;;
21060;SDS011;10689;50.836;3.266;2022-10-31T05:59:28;11.90;;;7.00;;
21060;SDS011;10689;50.836;3.266;2022-10-31T06:01:54;9.20;;;6.50;;
21060;SDS011;10689;50.836;3.266;2022-10-31T06:04:20;10.97;;;6.20;;
21060;SDS011;10689;50.836;3.266;2022-10-31T06:06:45;8.20;;;6.10;;
21060;SDS011;10689;50.836;3.266;2022-10-31T06:09:11;8.63;;;6.03;;
21060;SDS011;10689;50.836;3.266;2022-10-31T06:11:36;10.53;;;6.33;;
21060;SDS011;10689;50.836;3.266;2022-10-31T06:14:02;11.00;;;7.00;;
21060;SDS011;10689;50.836;3.266;2022-10-31T06:16:28;9.60;;;6.37;;
21060;SDS011;10689;50.836;3.266;2022-10-31T06:18:54;12.37;;;7.37;;
21060;SDS011;10689;50.836;3.266;2022-10-31T06:21:20;10.10;;;7.00;;
21060;SDS011;10689;50.836;3.266;2022-10-31T06:23:46;11.87;;;6.40;;
21060;SDS011;10689;50.836;3.266;2022-10-31T06:26:11;11.10;;;6.80;;
21060;SDS011;10689;50.836;3.266;2022-10-31T06:28:37;12.77;;;8.60;;
21060;SDS011;10689;50.836;3.266;2022-10-31T06:31:02;16.17;;;9.57;;
21060;SDS011;10689;50.836;3.266;2022-10-31T06:33:28;13.07;;;8.70;;
21060;SDS011;10689;50.836;3.266;2022-10-31T06:35:54;10.57;;;7.87;;
21060;SDS011;10689;50.836;3.266;2022-10-31T06:38:19;13.30;;;7.57;;
21060;SDS011;10689;50.836;3.266;2022-10-31T06:40:45;12.30;;;8.60;;
21060;SDS011;10689;50.836;3.266;2022-10-31T06:43:11;11.47;;;7.10;;
21060;SDS011;10689;50.836;3.266;2022-10-31T06:45:37;12.27;;;8.50;;
21060;SDS011;10689;50.836;3.266;2022-10-31T06:48:02;11.73;;;7.33;;
21060;SDS011;10689;50.836;3.266;2022-10-31T06:50:28;9.87;;;7.57;;
21060;SDS011;10689;50.836;3.266;2022-10-31T06:52:55;11.55;;;7.85;;
21060;SDS011;10689;50.836;3.266;2022-10-31T06:55:22;12.73;;;8.50;;
21060;SDS011;10689;50.836;3.266;2022-10-31T06:57:52;10.82;;;7.00;;
21060;SDS011;10689;50.836;3.266;2022-10-31T07:00:19;12.68;;;8.48;;
21060;SDS011;10689;50.836;3.266;2022-10-31T07:02:54;12.23;;;8.25;;
21060;SDS011;10689;50.836;3.266;2022-10-31T07:05:21;13.15;;;8.82;;
21060;SDS011;10689;50.836;3.266;2022-10-31T07:07:47;10.55;;;7.25;;
21060;SDS011;10689;50.836;3.266;2022-10-31T07:10:16;9.77;;;7.27;;
21060;SDS011;10689;50.836;3.266;2022-10-31T07:12:42;12.80;;;8.43;;
21060;SDS011;10689;50.836;3.266;2022-10-31T07:15:08;15.35;;;8.43;;
21060;SDS011;10689;50.836;3.266;2022-10-31T07:17:33;10.43;;;7.87;;
21060;SDS011;10689;50.836;3.266;2022-10-31T07:19:59;13.87;;;9.33;;
21060;SDS011;10689;50.836;3.266;2022-10-31T07:22:25;16.27;;;10.13;;
21060;SDS011;10689;50.836;3.266;2022-10-31T07:24:58;12.48;;;8.70;;
21060;SDS011;10689;50.836;3.266;2022-10-31T07:27:24;12.82;;;8.90;;
21060;SDS011;10689;50.836;3.266;2022-10-31T07:29:49;12.93;;;8.43;;
21060;SDS011;10689;50.836;3.266;2022-10-31T07:32:15;13.38;;;9.20;;
21060;SDS011;10689;50.836;3.266;2022-10-31T07:34:40;16.50;;;9.43;;
21060;SDS011;10689;50.836;3.266;2022-10-31T07:37:06;14.90;;;8.90;;
21060;SDS011;10689;50.836;3.266;2022-10-31T07:39:32;13.13;;;9.00;;
21060;SDS011;10689;50.836;3.266;2022-10-31T07:41:58;13.40;;;8.88;;
21060;SDS011;10689;50.836;3.266;2022-10-31T07:44:23;13.38;;;8.50;;
21060;SDS011;10689;50.836;3.266;2022-10-31T07:46:49;14.77;;;9.10;;
21060;SDS011;10689;50.836;3.266;2022-10-31T07:49:15;15.43;;;9.25;;
21060;SDS011;10689;50.836;3.266;2022-10-31T07:51:40;12.48;;;8.77;;
21060;SDS011;10689;50.836;3.266;2022-10-31T07:54:06;15.00;;;9.15;;
21060;SDS011;10689;50.836;3.266;2022-10-31T07:56:32;12.18;;;8.75;;
21060;SDS011;10689;50.836;3.266;2022-10-31T07:58:58;12.75;;;8.70;;
21060;SDS011;10689;50.836;3.266;2022-10-31T08:01:23;16.15;;;9.43;;
21060;SDS011;10689;50.836;3.266;2022-10-31T08:03:49;15.32;;;9.98;;
21060;SDS011;10689;50.836;3.266;2022-10-31T08:06:15;14.10;;;8.98;;
21060;SDS011;10689;50.836;3.266;2022-10-31T08:08:40;14.88;;;9.88;;
21060;SDS011;10689;50.836;3.266;2022-10-31T08:11:06;16.30;;;10.38;;
21060;SDS011;10689;50.836;3.266;2022-10-31T08:13:31;13.02;;;8.57;;
21060;SDS011;10689;50.836;3.266;2022-10-31T08:15:57;13.50;;;8.75;;
21060;SDS011;10689;50.836;3.266;2022-10-31T08:18:28;12.90;;;8.65;;
21060;SDS011;10689;50.836;3.266;2022-10-31T08:20:54;14.15;;;8.70;;
21060;SDS011;10689;50.836;3.266;2022-10-31T08:23:20;12.93;;;8.57;;
21060;SDS011;10689;50.836;3.266;2022-10-31T08:25:46;14.10;;;8.18;;
21060;SDS011;10689;50.836;3.266;2022-10-31T08:28:13;12.70;;;8.48;;
21060;SDS011;10689;50.836;3.266;2022-10-31T08:30:39;12.43;;;8.25;;
21060;SDS011;10689;50.836;3.266;2022-10-31T08:33:07;10.88;;;6.60;;
21060;SDS011;10689;50.836;3.266;2022-10-31T08:35:36;13.60;;;8.68;;
21060;SDS011;10689;50.836;3.266;2022-10-31T08:38:02;11.13;;;6.82;;
21060;SDS011;10689;50.836;3.266;2022-10-31T08:40:29;10.48;;;6.70;;
21060;SDS011;10689;50.836;3.266;2022-10-31T08:42:56;9.32;;;6.63;;
21060;SDS011;10689;50.836;3.266;2022-10-31T08:45:23;9.60;;;6.68;;
21060;SDS011;10689;50.836;3.266;2022-10-31T08:47:49;8.35;;;6.40;;
21060;SDS011;10689;50.836;3.266;2022-10-31T08:50:15;10.68;;;6.60;;
21060;SDS011;10689;50.836;3.266;2022-10-31T08:52:40;11.27;;;6.30;;
21060;SDS011;10689;50.836;3.266;2022-10-31T08:55:06;11.05;;;7.00;;
21060;SDS011;10689;50.836;3.266;2022-10-31T08:57:32;8.98;;;6.22;;
21060;SDS011;10689;50.836;3.266;2022-10-31T08:59:57;10.10;;;6.72;;
21060;SDS011;10689;50.836;3.266;2022-10-31T09:02:23;7.63;;;5.93;;
21060;SDS011;10689;50.836;3.266;2022-10-31T09:04:49;8.38;;;6.43;;
21060;SDS011;10689;50.836;3.266;2022-10-31T09:07:15;7.70;;;6.43;;
21060;SDS011;10689;50.836;3.266;2022-10-31T09:09:40;11.85;;;6.95;;
21060;SDS011;10689;50.836;3.266;2022-10-31T09:12:06;8.80;;;6.28;;
21060;SDS011;10689;50.836;3.266;2022-10-31T09:14:32;9.55;;;7.28;;
21060;SDS011;10689;50.836;3.266;2022-10-31T09:16:58;9.50;;;6.70;;
21060;SDS011;10689;50.836;3.266;2022-10-31T09:19:24;9.55;;;7.68;;
21060;SDS011;10689;50.836;3.266;2022-10-31T09:21:51;8.68;;;6.88;;
21060;SDS011;10689;50.836;3.266;2022-10-31T09:24:18;9.50;;;6.75;;
21060;SDS011;10689;50.836;3.266;2022-10-31T09:26:44;10.45;;;6.00;;
21060;SDS011;10689;50.836;3.266;2022-10-31T09:29:10;12.88;;;7.25;;
21060;SDS011;10689;50.836;3.266;2022-10-31T09:31:36;13.85;;;6.43;;
21060;SDS011;10689;50.836;3.266;2022-10-31T09:34:01;7.05;;;5.63;;
21060;SDS011;10689;50.836;3.266;2022-10-31T09:36:27;9.07;;;6.35;;
21060;SDS011;10689;50.836;3.266;2022-10-31T09:38:53;7.97;;;6.20;;
21060;SDS011;10689;50.836;3.266;2022-10-31T09:46:55;8.55;;;6.57;;
21060;SDS011;10689;50.836;3.266;2022-10-31T09:49:43;6.95;;;5.25;;
21060;SDS011;10689;50.836;3.266;2022-10-31T09:52:24;8.00;;;5.82;;
21060;SDS011;10689;50.836;3.266;2022-10-31T09:55:00;8.55;;;6.00;;
21060;SDS011;10689;50.836;3.266;2022-10-31T09:57:37;10.82;;;6.45;;
21060;SDS011;10689;50.836;3.266;2022-10-31T10:00:04;12.65;;;6.20;;
21060;SDS011;10689;50.836;3.266;2022-10-31T10:02:38;5.97;;;5.25;;
21060;SDS011;10689;50.836;3.266;2022-10-31T10:05:10;6.50;;;5.07;;
21060;SDS011;10689;50.836;3.266;2022-10-31T10:07:47;7.20;;;5.43;;
21060;SDS011;10689;50.836;3.266;2022-10-31T10:24:24;7.65;;;4.93;;
21060;SDS011;10689;50.836;3.266;2022-10-31T10:26:59;7.30;;;5.10;;
21060;SDS011;10689;50.836;3.266;2022-10-31T10:29:42;8.80;;;3.97;;
21060;SDS011;10689;50.836;3.266;2022-10-31T10:32:22;6.75;;;3.55;;
21060;SDS011;10689;50.836;3.266;2022-10-31T10:34:57;4.82;;;3.92;;
21060;SDS011;10689;50.836;3.266;2022-10-31T10:40:08;9.85;;;3.88;;
21060;SDS011;10689;50.836;3.266;2022-10-31T10:46:00;6.43;;;2.80;;
21060;SDS011;10689;50.836;3.266;2022-10-31T10:51:25;5.80;;;3.50;;
21060;SDS011;10689;50.836;3.266;2022-10-31T11:00:26;4.63;;;2.75;;
21060;SDS011;10689;50.836;3.266;2022-10-31T11:02:55;4.18;;;3.15;;
21060;SDS011;10689;50.836;3.266;2022-10-31T11:07:56;6.97;;;2.42;;
21060;SDS011;10689;50.836;3.266;2022-10-31T11:10:22;4.38;;;2.97;;
21060;SDS011;10689;50.836;3.266;2022-10-31T11:15:39;3.70;;;2.78;;
21060;SDS011;10689;50.836;3.266;2022-10-31T11:18:27;4.55;;;3.08;;
21060;SDS011;10689;50.836;3.266;2022-10-31T11:20:57;3.60;;;2.92;;
21060;SDS011;10689;50.836;3.266;2022-10-31T11:23:25;4.47;;;2.88;;
21060;SDS011;10689;50.836;3.266;2022-10-31T11:26:16;4.57;;;2.55;;
21060;SDS011;10689;50.836;3.266;2022-10-31T11:28:44;4.57;;;2.60;;
21060;SDS011;10689;50.836;3.266;2022-10-31T11:31:24;2.53;;;2.03;;
21060;SDS011;10689;50.836;3.266;2022-10-31T11:33:55;3.70;;;2.25;;
21060;SDS011;10689;50.836;3.266;2022-10-31T11:36:31;3.20;;;2.50;;
21060;SDS011;10689;50.836;3.266;2022-10-31T11:39:00;3.40;;;2.63;;
21060;SDS011;10689;50.836;3.266;2022-10-31T11:41:29;2.58;;;1.90;;
21060;SDS011;10689;50.836;3.266;2022-10-31T11:43:59;4.07;;;2.85;;
21060;SDS011;10689;50.836;3.266;2022-10-31T11:46:39;5.20;;;2.17;;
21060;SDS011;10689;50.836;3.266;2022-10-31T11:49:22;4.05;;;2.33;;
21060;SDS011;10689;50.836;3.266;2022-10-31T11:51:51;3.70;;;2.83;;
21060;SDS011;10689;50.836;3.266;2022-10-31T11:54:20;5.18;;;2.40;;
21060;SDS011;10689;50.836;3.266;2022-10-31T11:56:50;5.18;;;2.70;;
21060;SDS011;10689;50.836;3.266;2022-10-31T11:59:31;3.15;;;2.63;;
21060;SDS011;10689;50.836;3.266;2022-10-31T12:01:58;3.88;;;2.38;;
21060;SDS011;10689;50.836;3.266;2022-10-31T12:04:41;4.22;;;2.38;;
21060;SDS011;10689;50.836;3.266;2022-10-31T12:07:20;3.90;;;2.85;;
21060;SDS011;10689;50.836;3.266;2022-10-31T12:09:48;4.15;;;2.90;;
21060;SDS011;10689;50.836;3.266;2022-10-31T12:12:17;6.70;;;3.60;;
21060;SDS011;10689;50.836;3.266;2022-10-31T12:34:01;6.18;;;3.17;;
21060;SDS011;10689;50.836;3.266;2022-10-31T12:36:29;7.43;;;3.28;;
21060;SDS011;10689;50.836;3.266;2022-10-31T12:41:59;8.43;;;3.75;;
21060;SDS011;10689;50.836;3.266;2022-10-31T12:58:36;7.13;;;3.97;;
21060;SDS011;10689;50.836;3.266;2022-10-31T13:01:13;8.20;;;3.88;;
21060;SDS011;10689;50.836;3.266;2022-10-31T13:06:31;8.00;;;4.43;;
21060;SDS011;10689;50.836;3.266;2022-10-31T13:09:02;11.63;;;3.72;;
21060;SDS011;10689;50.836;3.266;2022-10-31T13:11:35;7.50;;;3.40;;
21060;SDS011;10689;50.836;3.266;2022-10-31T13:14:12;4.82;;;3.83;;
21060;SDS011;10689;50.836;3.266;2022-10-31T13:16:48;11.02;;;4.47;;
21060;SDS011;10689;50.836;3.266;2022-10-31T13:22:18;6.97;;;4.20;;
21060;SDS011;10689;50.836;3.266;2022-10-31T13:27:26;9.27;;;4.57;;
21060;SDS011;10689;50.836;3.266;2022-10-31T13:30:03;9.23;;;4.53;;
21060;SDS011;10689;50.836;3.266;2022-10-31T13:32:39;9.15;;;3.95;;
21060;SDS011;10689;50.836;3.266;2022-10-31T13:35:20;9.15;;;5.13;;
21060;SDS011;10689;50.836;3.266;2022-10-31T13:38:10;8.00;;;4.65;;
21060;SDS011;10689;50.836;3.266;2022-10-31T13:43:31;11.48;;;5.40;;
21060;SDS011;10689;50.836;3.266;2022-10-31T13:46:26;9.55;;;4.80;;
21060;SDS011;10689;50.836;3.266;2022-10-31T13:48:59;9.85;;;5.68;;
21060;SDS011;10689;50.836;3.266;2022-10-31T13:51:26;11.27;;;4.97;;
21060;SDS011;10689;50.836;3.266;2022-10-31T13:56:22;8.10;;;4.35;;
21060;SDS011;10689;50.836;3.266;2022-10-31T13:58:56;5.22;;;4.00;;
21060;SDS011;10689;50.836;3.266;2022-10-31T14:01:26;13.88;;;5.10;;
21060;SDS011;10689;50.836;3.266;2022-10-31T14:04:02;13.32;;;5.63;;
21060;SDS011;10689;50.836;3.266;2022-10-31T14:06:42;10.40;;;5.20;;
21060;SDS011;10689;50.836;3.266;2022-10-31T14:09:28;8.90;;;4.93;;
21060;SDS011;10689;50.836;3.266;2022-10-31T14:11:57;10.02;;;6.07;;
21060;SDS011;10689;50.836;3.266;2022-10-31T14:14:30;13.18;;;5.35;;
21060;SDS011;10689;50.836;3.266;2022-10-31T14:16:59;9.43;;;5.78;;
21060;SDS011;10689;50.836;3.266;2022-10-31T14:19:25;6.95;;;5.32;;
21060;SDS011;10689;50.836;3.266;2022-10-31T14:21:52;9.02;;;5.43;;
21060;SDS011;10689;50.836;3.266;2022-10-31T14:26:53;10.13;;;5.68;;
21060;SDS011;10689;50.836;3.266;2022-10-31T14:29:29;10.25;;;5.50;;
21060;SDS011;10689;50.836;3.266;2022-10-31T14:34:50;12.63;;;5.40;;
21060;SDS011;10689;50.836;3.266;2022-10-31T14:43:13;12.95;;;6.40;;
21060;SDS011;10689;50.836;3.266;2022-10-31T14:45:46;21.20;;;6.63;;
21060;SDS011;10689;50.836;3.266;2022-10-31T14:50:53;14.68;;;6.95;;
21060;SDS011;10689;50.836;3.266;2022-10-31T14:53:28;10.40;;;6.25;;
21060;SDS011;10689;50.836;3.266;2022-10-31T14:56:11;10.95;;;6.78;;
21060;SDS011;10689;50.836;3.266;2022-10-31T15:01:15;9.18;;;6.35;;
21060;SDS011;10689;50.836;3.266;2022-10-31T15:03:49;12.50;;;6.43;;
21060;SDS011;10689;50.836;3.266;2022-10-31T15:06:16;13.65;;;6.85;;
21060;SDS011;10689;50.836;3.266;2022-10-31T15:08:47;8.35;;;6.43;;
21060;SDS011;10689;50.836;3.266;2022-10-31T15:13:48;9.60;;;6.28;;
21060;SDS011;10689;50.836;3.266;2022-10-31T15:16:19;10.65;;;6.57;;
21060;SDS011;10689;50.836;3.266;2022-10-31T15:18:55;15.18;;;7.05;;
21060;SDS011;10689;50.836;3.266;2022-10-31T15:21:27;10.82;;;6.47;;
21060;SDS011;10689;50.836;3.266;2022-10-31T15:23:54;15.20;;;7.05;;
21060;SDS011;10689;50.836;3.266;2022-10-31T15:26:34;14.10;;;7.20;;
21060;SDS011;10689;50.836;3.266;2022-10-31T15:29:10;12.65;;;7.68;;
21060;SDS011;10689;50.836;3.266;2022-10-31T15:31:38;11.13;;;7.15;;
21060;SDS011;10689;50.836;3.266;2022-10-31T15:34:05;9.55;;;7.15;;
21060;SDS011;10689;50.836;3.266;2022-10-31T15:36:41;15.48;;;7.45;;
21060;SDS011;10689;50.836;3.266;2022-10-31T15:39:11;8.98;;;6.72;;
21060;SDS011;10689;50.836;3.266;2022-10-31T15:41:53;11.98;;;7.60;;
21060;SDS011;10689;50.836;3.266;2022-10-31T15:44:22;12.48;;;7.43;;
21060;SDS011;10689;50.836;3.266;2022-10-31T15:47:01;10.20;;;7.22;;
21060;SDS011;10689;50.836;3.266;2022-10-31T15:49:39;13.00;;;7.25;;
21060;SDS011;10689;50.836;3.266;2022-10-31T15:55:14;11.93;;;8.10;;
21060;SDS011;10689;50.836;3.266;2022-10-31T15:57:48;13.68;;;8.45;;
21060;SDS011;10689;50.836;3.266;2022-10-31T16:05:43;11.10;;;8.10;;
21060;SDS011;10689;50.836;3.266;2022-10-31T16:08:21;16.85;;;7.97;;
21060;SDS011;10689;50.836;3.266;2022-10-31T16:10:54;12.43;;;8.65;;
21060;SDS011;10689;50.836;3.266;2022-10-31T16:13:29;11.35;;;7.90;;
21060;SDS011;10689;50.836;3.266;2022-10-31T16:16:03;12.70;;;7.53;;
21060;SDS011;10689;50.836;3.266;2022-10-31T16:18:36;14.05;;;7.28;;
21060;SDS011;10689;50.836;3.266;2022-10-31T16:21:04;12.60;;;8.32;;
21060;SDS011;10689;50.836;3.266;2022-10-31T16:23:30;14.00;;;8.65;;
21060;SDS011;10689;50.836;3.266;2022-10-31T16:25:56;14.60;;;7.22;;
21060;SDS011;10689;50.836;3.266;2022-10-31T16:28:23;14.23;;;6.88;;
21060;SDS011;10689;50.836;3.266;2022-10-31T16:30:51;12.18;;;7.10;;
21060;SDS011;10689;50.836;3.266;2022-10-31T16:35:52;13.50;;;6.78;;
21060;SDS011;10689;50.836;3.266;2022-10-31T16:38:22;8.43;;;6.43;;
21060;SDS011;10689;50.836;3.266;2022-10-31T16:40:48;11.73;;;7.07;;
21060;SDS011;10689;50.836;3.266;2022-10-31T16:43:15;13.32;;;7.50;;
21060;SDS011;10689;50.836;3.266;2022-10-31T16:45:50;16.23;;;7.25;;
21060;SDS011;10689;50.836;3.266;2022-10-31T16:48:17;12.68;;;6.50;;
21060;SDS011;10689;50.836;3.266;2022-10-31T16:50:46;12.57;;;6.68;;
21060;SDS011;10689;50.836;3.266;2022-10-31T16:53:13;12.05;;;6.60;;
21060;SDS011;10689;50.836;3.266;2022-10-31T16:55:43;13.30;;;6.10;;
21060;SDS011;10689;50.836;3.266;2022-10-31T16:58:15;11.25;;;6.10;;
21060;SDS011;10689;50.836;3.266;2022-10-31T17:00:43;8.00;;;5.93;;
21060;SDS011;10689;50.836;3.266;2022-10-31T17:03:09;10.77;;;6.45;;
21060;SDS011;10689;50.836;3.266;2022-10-31T17:05:35;9.77;;;5.65;;
21060;SDS011;10689;50.836;3.266;2022-10-31T17:08:02;9.60;;;6.68;;
21060;SDS011;10689;50.836;3.266;2022-10-31T17:10:28;10.90;;;6.32;;
21060;SDS011;10689;50.836;3.266;2022-10-31T17:12:54;11.98;;;6.25;;
21060;SDS011;10689;50.836;3.266;2022-10-31T17:15:25;12.52;;;6.57;;
21060;SDS011;10689;50.836;3.266;2022-10-31T17:17:52;15.20;;;5.85;;
21060;SDS011;10689;50.836;3.266;2022-10-31T17:20:20;8.75;;;5.55;;
21060;SDS011;10689;50.836;3.266;2022-10-31T17:22:46;11.07;;;5.75;;
21060;SDS011;10689;50.836;3.266;2022-10-31T17:25:16;9.85;;;5.97;;
21060;SDS011;10689;50.836;3.266;2022-10-31T17:27:43;10.50;;;6.47;;
21060;SDS011;10689;50.836;3.266;2022-10-31T17:30:12;8.10;;;5.90;;
21060;SDS011;10689;50.836;3.266;2022-10-31T17:32:39;6.85;;;4.93;;
21060;SDS011;10689;50.836;3.266;2022-10-31T17:35:05;8.25;;;5.50;;